• Join FlightAware (Why Join?)
  • Login
  • US Flag 
03:47PM EDT


 

Airport Tracker/Info


-or-


 

Live Flight TrackerFlight Track Log ✈ EJA929 ✈ 10-Sep-2013 ✈ KMMU - KIAD

Flight Track Log - Related Links

Times and Time Zones

All times are in EDT time to prevent confusion due to time zone crossing. See the EJA929 flight status page for this flight to view local times or setup timezone preferences in your user account.

Time Position Orientation Groundspeed Altitude Reporting Facility
EDT Latitude Longitude Course Direction KTS MPH feet Rate Location/Type
06:41PM 40.7667 -74.4333 240° Southwest 190 219 1,800  Level New York TRACON
06:42PM 40.7167 -74.4167 166° South 236 272 3,900 2,640 Climbing New York TRACON
06:43PM 40.6500 -74.4000 169° South 268 308 6,900 2,460 Climbing New York TRACON
06:45PM 40.6881 -74.5725 286° West 281 323 11,300 1,920 Climbing New York Center
06:46PM 40.7258 -74.6842 294° West 323 372 12,700 1,500 Climbing New York Center
06:47PM 40.4735 -74.9726 240° Southwest  Level Estimated
06:47PM 40.7531 -74.8061 286° West 345 397 14,300  Level New York Center
06:48PM 40.7233 -74.9386 254° West 357 411 16,000 1,560 Climbing New York Center
06:49PM 40.6881 -75.0542 248° West 378 435 17,500 1,500 Climbing New York Center
06:50PM 40.6356 -75.1767 241° Southwest 385 443 19,000 1,140 Climbing New York Center
06:51PM 40.5789 -75.3014 239° Southwest 395 455 19,800 480 Climbing New York Center
06:52PM 40.5217 -75.4286 239° Southwest 395 455 20,000 60 Climbing New York Center
06:53PM 40.4647 -75.5531 239° Southwest 401 461 20,000  Level New York Center
06:54PM 40.4075 -75.6800 239° Southwest 401 461 20,000  Level New York Center
06:55PM 40.3522 -75.8014 239° Southwest 406 467 20,000  Level New York Center
06:56PM 40.2836 -75.9433 238° Southwest 406 467 20,000 -300 Level New York Center
06:57PM 40.2239 -76.0667 238° Southwest 412 474 19,400 -840 Descending New York Center
06:58PM 40.1683 -76.1900 240° Southwest 407 468 18,400 -960 Descending New York Center
06:59PM 40.1083 -76.3156 238° Southwest 407 468 17,500 -1,020 Descending New York Center
07:01PM 39.9833 -76.6000 240° Southwest 393 452 15,100 -780 Descending Potomac TRACON
07:02PM 39.9333 -76.7000 237° Southwest 380 437 14,900 -60 Descending Potomac TRACON
07:03PM 39.8833 -76.8000 237° Southwest 334 384 15,000  Climbing Potomac TRACON
07:04PM 39.8333 -76.9000 237° Southwest 317 365 15,000 -660 Level Potomac TRACON
07:05PM 39.7833 -77.0000 237° Southwest 317 365 13,700 -1,500 Descending Potomac TRACON
07:06PM 39.7333 -77.1000 237° Southwest 319 367 12,100 -1,560 Descending Potomac TRACON
07:07PM 39.7000 -77.2000 247° West 312 359 10,600 -1,500 Descending Potomac TRACON
07:08PM 39.6333 -77.2833 224° Southwest 306 352 9,100 -1,500 Descending Potomac TRACON
07:09PM 39.5833 -77.3500 226° Southwest 298 343 7,600 -1,560 Descending Potomac TRACON
07:10PM 39.5167 -77.4167 218° Southwest 292 336 6,200 -1,440 Descending Potomac TRACON
07:11PM 39.4333 -77.4333 189° South 272 313 4,900 -1,080 Descending Potomac TRACON
07:12PM 39.3667 -77.4333 180° South 271 312 4,100 -480 Descending Potomac TRACON
07:13PM 39.2833 -77.4333 180° South 272 313 4,000 -360 Descending Potomac TRACON
07:14PM 39.2167 -77.4333 180° South 255 293 3,400 -540 Descending Potomac TRACON
07:15PM 39.1500 -77.4333 180° South 199 229 3,000 -240 Descending Potomac TRACON
07:16PM 39.1000 -77.4333 180° South 170 196 3,000 -360 Level Potomac TRACON
07:17PM 39.0667 -77.4333 180° South 177 204 2,300 -780 Descending Potomac TRACON
07:18PM 39.0167 -77.4333 180° South 152 175 1,500 -720 Descending Potomac TRACON
07:19PM 38.9833 -77.4333 180° South 120 138 900 -600 Descending Potomac TRACON
07:21PM 38.9474 -77.4599 180° South  Level Estimated
07:28PM 38.9474 -77.4599 349° North  Level Estimated
07:29PM 38.9474 -77.4599 349° North  Level Estimated
07:30PM 38.9474 -77.4599 349° North  Level Estimated